Time;durP1;ratioP1;P1;durP2;ratioP2;P2;SDS_P1;SDS_P2;PMS_P1;PMS_P2;Temp;Humidity;BMP_temperature;BMP_pressure;BME280_temperature;BME280_humidity;BME280_pressure;Samples;Min_cycle;Max_cycle;Signal;HPM_P1;HPM_P2
2023/12/06 06:01:08;;;;;;;1.30;0.47;;;5.30;86.20;;;;;;4548916;23;20092;-78
2023/12/06 06:03:10;;;;;;;1.25;0.50;;;5.30;86.30;;;;;;4102333;28;20066;-78
2023/12/06 06:05:13;;;;;;;1.80;0.52;;;5.30;86.40;;;;;;4102362;29;20547;-78
2023/12/06 06:07:15;;;;;;;1.48;0.70;;;5.30;86.40;;;;;;4102285;29;20047;-78
2023/12/06 06:09:16;;;;;;;1.13;0.55;;;5.30;86.40;;;;;;4102504;29;20043;-78
2023/12/06 06:11:18;;;;;;;1.30;0.52;;;5.30;86.30;;;;;;4102255;29;20299;-78
2023/12/06 06:13:20;;;;;;;1.20;0.40;;;5.30;86.30;;;;;;4102335;29;20055;-78
2023/12/06 06:15:22;;;;;;;1.95;0.40;;;5.30;86.20;;;;;;4102254;29;20372;-78
2023/12/06 06:17:25;;;;;;;1.25;0.52;;;5.30;86.30;;;;;;4090941;29;20048;-78
2023/12/06 06:19:27;;;;;;;3.00;0.60;;;5.30;86.30;;;;;;4086282;29;20048;-78
2023/12/06 06:21:29;;;;;;;1.88;0.60;;;5.30;86.50;;;;;;4086276;29;20051;-78
2023/12/06 06:23:31;;;;;;;1.88;0.80;;;5.30;86.50;;;;;;4086171;29;20457;-78
2023/12/06 06:25:32;;;;;;;3.67;0.80;;;5.30;86.30;;;;;;4085912;29;20481;-78
2023/12/06 06:27:34;;;;;;;1.98;0.65;;;5.30;86.30;;;;;;4086211;29;20056;-78
2023/12/06 06:29:37;;;;;;;2.13;0.70;;;5.30;86.50;;;;;;4086022;29;20048;-78
2023/12/06 06:31:39;;;;;;;2.25;0.70;;;5.30;86.30;;;;;;4086159;29;20090;-78
2023/12/06 06:33:41;;;;;;;1.55;0.70;;;5.30;86.30;;;;;;4086116;29;20091;-78
2023/12/06 06:35:43;;;;;;;2.03;0.70;;;5.30;86.50;;;;;;4086138;29;20103;-78
2023/12/06 06:37:46;;;;;;;1.70;0.70;;;5.30;86.30;;;;;;4086075;29;20466;-78
2023/12/06 06:39:48;;;;;;;1.52;0.70;;;5.30;86.20;;;;;;4101111;29;20043;-78
2023/12/06 06:41:49;;;;;;;20.75;9.30;;;5.30;85.90;;;;;;4101967;29;20110;-79
2023/12/06 06:43:51;;;;;;;21.77;9.85;;;5.30;86.00;;;;;;4094376;29;20382;-78
2023/12/06 06:45:53;;;;;;;4.45;1.10;;;5.30;85.80;;;;;;4085988;29;20095;-78
2023/12/06 06:47:55;;;;;;;1.75;0.73;;;5.20;85.60;;;;;;4085936;29;20130;-78
2023/12/06 06:49:58;;;;;;;2.40;0.80;;;5.20;85.70;;;;;;4085947;29;20059;-78
2023/12/06 06:52:00;;;;;;;2.42;0.95;;;5.20;85.60;;;;;;4085799;29;20116;-78
2023/12/06 06:54:02;;;;;;;2.53;0.80;;;5.10;85.40;;;;;;4085912;29;20118;-78
2023/12/06 06:56:05;;;;;;;2.55;0.80;;;5.20;85.40;;;;;;4085882;29;20478;-78
2023/12/06 06:58:07;;;;;;;2.03;0.88;;;5.20;85.30;;;;;;4085254;29;20047;-78
2023/12/06 07:00:12;;;;;;;2.42;0.82;;;5.20;85.30;;;;;;4085737;29;20048;-78
2023/12/06 07:02:14;;;;;;;2.10;0.70;;;5.10;85.20;;;;;;4085816;29;20075;-78
2023/12/06 07:04:16;;;;;;;2.75;1.00;;;5.10;85.10;;;;;;4085721;29;20500;-78
2023/12/06 07:06:20;;;;;;;3.13;1.10;;;5.10;85.00;;;;;;4085742;29;20052;-78
2023/12/06 07:08:22;;;;;;;12.23;6.22;;;5.10;85.00;;;;;;4085712;29;20048;-78
2023/12/06 07:10:24;;;;;;;3.50;1.30;;;5.10;85.40;;;;;;4085678;29;20052;-78
2023/12/06 07:12:25;;;;;;;3.40;1.00;;;5.10;84.90;;;;;;4085426;29;20048;-78
2023/12/06 07:14:27;;;;;;;2.50;1.05;;;5.20;85.10;;;;;;4085605;29;20059;-78
2023/12/06 07:16:29;;;;;;;2.38;0.80;;;5.20;84.90;;;;;;4085532;29;20185;-78
2023/12/06 07:18:32;;;;;;;1.98;0.85;;;5.20;84.80;;;;;;4085507;29;20051;-78
2023/12/06 07:20:35;;;;;;;2.92;0.93;;;5.20;84.70;;;;;;4085574;29;20055;-78
2023/12/06 07:22:39;;;;;;;2.45;0.95;;;5.20;84.70;;;;;;4085238;29;20099;-78
2023/12/06 07:24:41;;;;;;;1.92;0.98;;;5.20;84.80;;;;;;4085277;29;20378;-79
2023/12/06 07:26:43;;;;;;;2.13;0.98;;;5.20;84.80;;;;;;4085430;29;20048;-78
2023/12/06 07:28:45;;;;;;;2.25;1.00;;;5.20;84.70;;;;;;4092330;29;20544;-78
2023/12/06 07:30:46;;;;;;;2.28;0.90;;;5.20;84.80;;;;;;4100729;29;20051;-79
2023/12/06 07:32:48;;;;;;;2.53;0.98;;;5.20;84.50;;;;;;4100941;29;20051;-78
2023/12/06 07:34:50;;;;;;;2.20;0.82;;;5.20;84.50;;;;;;4085508;29;20473;-78
2023/12/06 07:36:53;;;;;;;2.40;0.93;;;5.20;84.40;;;;;;4085318;29;20047;-78
2023/12/06 07:38:56;;;;;;;2.58;0.93;;;5.30;84.40;;;;;;4085054;29;20433;-78
2023/12/06 07:40:57;;;;;;;1.83;0.80;;;5.20;84.30;;;;;;4084969;29;20102;-78
2023/12/06 07:42:59;;;;;;;4.38;1.00;;;5.30;84.40;;;;;;4085121;29;20490;-78
2023/12/06 07:45:01;;;;;;;2.50;0.95;;;5.30;84.40;;;;;;4084939;29;20047;-78
2023/12/06 07:47:03;;;;;;;10.05;5.05;;;5.20;84.40;;;;;;4085157;29;20114;-78
2023/12/06 07:49:04;;;;;;;4.28;1.73;;;5.20;84.40;;;;;;4084932;29;20052;-78
2023/12/06 07:51:07;;;;;;;2.33;0.80;;;5.20;84.40;;;;;;4084857;29;20048;-78
2023/12/06 07:53:08;;;;;;;3.25;1.00;;;5.30;84.30;;;;;;4086224;29;20477;-79
2023/12/06 07:55:13;;;;;;;2.40;0.88;;;5.30;84.20;;;;;;4084976;29;20055;-79
2023/12/06 07:57:15;;;;;;;3.90;1.17;;;5.30;84.40;;;;;;4084861;29;20155;-79
2023/12/06 07:59:16;;;;;;;2.50;0.90;;;5.30;84.20;;;;;;4084869;29;20110;-79
2023/12/06 08:01:18;;;;;;;3.30;1.10;;;5.30;84.10;;;;;;4084586;29;20063;-79
2023/12/06 08:03:21;;;;;;;2.90;1.13;;;5.30;84.10;;;;;;4084850;29;20043;-78
2023/12/06 08:05:23;;;;;;;3.53;0.90;;;5.30;84.00;;;;;;4084870;29;20059;-78
2023/12/06 08:07:26;;;;;;;2.38;0.93;;;5.40;84.10;;;;;;4084819;29;20047;-78
2023/12/06 08:09:29;;;;;;;3.13;1.20;;;5.40;84.00;;;;;;4084189;29;20405;-78
2023/12/06 08:11:32;;;;;;;2.97;1.15;;;5.30;84.20;;;;;;4099193;29;20086;-78
2023/12/06 08:13:34;;;;;;;5.07;1.27;;;5.40;84.20;;;;;;4100484;29;20047;-78
2023/12/06 08:15:35;;;;;;;2.47;1.00;;;5.40;84.10;;;;;;4100462;28;20481;-78
2023/12/06 08:17:37;;;;;;;2.58;1.10;;;5.30;84.40;;;;;;4100521;29;20051;-78
2023/12/06 08:19:39;;;;;;;2.67;1.10;;;5.30;84.20;;;;;;4096155;29;20043;-77
2023/12/06 08:21:40;;;;;;;3.13;1.23;;;5.30;84.50;;;;;;4100301;28;20043;-77
2023/12/06 08:23:42;;;;;;;2.58;1.13;;;5.30;84.40;;;;;;4100136;29;20110;-78
2023/12/06 08:25:44;;;;;;;3.50;1.20;;;5.40;84.30;;;;;;4100536;29;20063;-79
2023/12/06 08:27:48;;;;;;;2.13;0.93;;;5.40;84.30;;;;;;4100326;29;20047;-78
2023/12/06 08:29:50;;;;;;;2.95;1.02;;;5.40;84.40;;;;;;4100248;29;20059;-79
2023/12/06 08:31:52;;;;;;;3.50;1.30;;;5.40;84.60;;;;;;4100192;29;20102;-78
2023/12/06 08:33:54;;;;;;;6.93;3.45;;;5.40;84.80;;;;;;4100432;29;20047;-76
2023/12/06 08:35:56;;;;;;;3.45;1.20;;;5.40;84.60;;;;;;4100298;29;20047;-79
2023/12/06 08:37:58;;;;;;;3.05;1.25;;;5.40;84.30;;;;;;4098794;28;20098;-78
2023/12/06 08:39:58;;;;;;;4.35;2.33;;;5.40;84.40;;;;;;4100303;29;20102;-78
2023/12/06 08:42:00;;;;;;;2.25;1.10;;;5.40;84.60;;;;;;4100454;29;20055;-78
2023/12/06 08:44:04;;;;;;;2.83;1.10;;;5.40;84.90;;;;;;4100189;29;20102;-78
2023/12/06 08:46:07;;;;;;;2.88;1.20;;;5.40;84.60;;;;;;4100064;29;20083;-78
2023/12/06 08:48:09;;;;;;;2.47;1.10;;;5.40;85.00;;;;;;4099956;29;20055;-78
2023/12/06 08:50:14;;;;;;;3.13;1.52;;;5.40;85.00;;;;;;4100432;28;20121;-78
2023/12/06 08:52:16;;;;;;;2.70;1.10;;;5.40;84.70;;;;;;4098295;29;20076;-78
2023/12/06 08:54:18;;;;;;;2.85;1.20;;;5.50;84.80;;;;;;4098113;29;20303;-78
2023/12/06 08:56:20;;;;;;;2.80;1.10;;;5.40;84.50;;;;;;4098170;29;20122;-78
2023/12/06 08:58:22;;;;;;;3.78;1.20;;;5.50;84.70;;;;;;4098384;29;20047;-78
2023/12/06 09:00:26;;;;;;;3.10;1.30;;;5.50;84.60;;;;;;4098200;29;20208;-78
2023/12/06 09:02:27;;;;;;;11.25;1.65;;;5.60;84.60;;;;;;4098252;29;20536;-79
2023/12/06 09:04:29;;;;;;;2.80;1.27;;;5.50;84.90;;;;;;4097613;29;20102;-78
2023/12/06 09:06:31;;;;;;;3.05;1.40;;;5.50;85.10;;;;;;4087993;29;20051;-78
2023/12/06 09:08:33;;;;;;;3.00;1.35;;;5.50;84.80;;;;;;4081984;29;20244;-78
2023/12/06 09:10:35;;;;;;;3.50;1.50;;;5.50;85.00;;;;;;4080071;29;20502;-78
2023/12/06 09:12:37;;;;;;;4.07;1.75;;;5.50;85.10;;;;;;4082009;29;20383;-78
2023/12/06 09:14:38;;;;;;;2.80;1.40;;;5.50;84.90;;;;;;4082448;29;20458;-80
2023/12/06 09:16:41;;;;;;;3.30;1.60;;;5.50;84.60;;;;;;4081712;29;20056;-79
2023/12/06 09:18:43;;;;;;;3.25;1.52;;;5.40;84.40;;;;;;4082040;29;20261;-79
2023/12/06 09:20:45;;;;;;;4.65;1.70;;;5.40;84.60;;;;;;4083845;29;20412;-78
2023/12/06 09:22:46;;;;;;;5.88;2.53;;;5.50;84.70;;;;;;4085181;29;20055;-78
2023/12/06 09:24:48;;;;;;;3.85;1.50;;;5.50;85.10;;;;;;4084969;29;20104;-78
2023/12/06 09:26:50;;;;;;;4.68;1.45;;;5.40;84.70;;;;;;4085278;29;20138;-80
2023/12/06 09:28:52;;;;;;;3.13;1.33;;;5.40;84.50;;;;;;4084925;29;20051;-78
2023/12/06 09:30:54;;;;;;;4.28;1.70;;;5.50;85.00;;;;;;4084914;29;20106;-79
2023/12/06 09:32:57;;;;;;;9.65;1.70;;;5.50;84.10;;;;;;4085224;29;20142;-78
2023/12/06 09:34:59;;;;;;;4.05;1.55;;;5.50;84.10;;;;;;4099656;29;20083;-78
2023/12/06 09:37:01;;;;;;;3.15;1.50;;;5.50;84.20;;;;;;4100662;29;20489;-78
2023/12/06 09:39:04;;;;;;;3.15;1.52;;;5.50;84.40;;;;;;4100613;29;20051;-78
2023/12/06 09:41:07;;;;;;;3.65;1.73;;;5.50;84.50;;;;;;4100534;28;20082;-78
2023/12/06 09:43:11;;;;;;;4.68;1.80;;;5.50;84.30;;;;;;4100616;29;20449;-79
2023/12/06 09:45:14;;;;;;;4.65;1.77;;;5.50;84.10;;;;;;4100638;29;20528;-78
2023/12/06 09:47:16;;;;;;;3.85;1.70;;;5.50;84.20;;;;;;4100720;29;20356;-78
2023/12/06 09:49:19;;;;;;;5.25;2.40;;;5.50;84.30;;;;;;4101070;29;20484;-77
2023/12/06 09:51:22;;;;;;;5.45;2.13;;;5.50;84.30;;;;;;4101754;28;20456;-78
2023/12/06 09:53:25;;;;;;;5.07;2.20;;;5.50;84.40;;;;;;4102345;29;20102;-78
2023/12/06 09:55:35;;;;;;;3.95;2.00;;;5.50;84.60;;;;;;4102642;29;20140;-78
2023/12/06 09:57:37;;;;;;;4.93;2.10;;;5.50;84.60;;;;;;4102350;29;20139;-78
2023/12/06 09:59:38;;;;;;;3.65;1.90;;;5.50;84.40;;;;;;4101010;29;20102;-78
2023/12/06 10:01:39;;;;;;;4.53;2.13;;;5.50;84.30;;;;;;4098586;29;20059;-78
2023/12/06 10:03:41;;;;;;;4.32;2.10;;;5.50;84.10;;;;;;4086703;29;20386;-78
2023/12/06 10:05:54;;;;;;;4.43;2.00;;;5.50;83.90;;;;;;4086396;29;20051;-78
2023/12/06 10:07:55;;;;;;;6.00;2.30;;;5.50;84.40;;;;;;4086518;29;20121;-78
2023/12/06 10:09:57;;;;;;;4.65;2.42;;;5.50;83.60;;;;;;4086395;29;20051;-78
2023/12/06 10:12:10;;;;;;;5.63;2.40;;;5.50;83.00;;;;;;4086347;29;20052;-78
2023/12/06 10:14:17;;;;;;;4.88;2.28;;;5.50;83.60;;;;;;4086392;29;20545;-79
2023/12/06 10:16:21;;;;;;;4.38;2.58;;;5.50;83.90;;;;;;4086252;29;20071;-77
2023/12/06 10:18:22;;;;;;;4.38;2.60;;;5.50;83.40;;;;;;4086482;29;20123;-78
2023/12/06 10:20:25;;;;;;;4.93;2.60;;;5.50;83.50;;;;;;4086350;29;20051;-78
2023/12/06 10:22:29;;;;;;;4.53;2.70;;;5.50;83.00;;;;;;4086230;29;20048;-78
2023/12/06 10:24:31;;;;;;;5.70;3.30;;;5.50;82.50;;;;;;4086251;29;20510;-78
2023/12/06 10:26:33;;;;;;;5.53;3.63;;;5.50;81.30;;;;;;4086313;29;20513;-78
2023/12/06 10:28:35;;;;;;;5.75;3.45;;;5.50;79.30;;;;;;4086123;29;20095;-79
2023/12/06 10:30:36;;;;;;;6.07;3.42;;;5.40;80.00;;;;;;4087270;29;20382;-78
2023/12/06 10:32:38;;;;;;;6.72;3.30;;;5.40;80.30;;;;;;4085481;29;20241;-79
2023/12/06 10:34:41;;;;;;;6.32;3.65;;;5.50;80.50;;;;;;4086208;29;20047;-78
2023/12/06 10:36:43;;;;;;;5.88;3.60;;;5.50;79.80;;;;;;4086178;29;20126;-79
2023/12/06 10:38:48;;;;;;;7.50;3.95;;;5.50;79.80;;;;;;4086156;29;20453;-79
2023/12/06 10:40:50;;;;;;;7.55;3.63;;;5.50;79.90;;;;;;4086368;29;20106;-79
2023/12/06 10:43:02;;;;;;;6.53;3.97;;;5.50;79.70;;;;;;4086098;29;20105;-79
2023/12/06 10:45:05;;;;;;;6.28;3.50;;;5.50;80.10;;;;;;4086050;29;20158;-79
2023/12/06 10:47:08;;;;;;;6.10;4.00;;;5.50;79.80;;;;;;4085798;29;20052;-79
2023/12/06 10:49:12;;;;;;;6.05;4.05;;;5.50;79.90;;;;;;4085898;29;20051;-79
2023/12/06 10:51:14;;;;;;;6.25;3.95;;;5.60;79.30;;;;;;4085829;29;20206;-79
2023/12/06 10:53:18;;;;;;;6.97;4.45;;;5.60;79.40;;;;;;4085830;29;20474;-79
2023/12/06 10:55:23;;;;;;;7.85;4.80;;;5.40;78.70;;;;;;4085612;29;20114;-79
2023/12/06 10:57:26;;;;;;;6.72;4.63;;;5.50;78.70;;;;;;4096158;29;20059;-79
2023/12/06 10:59:29;;;;;;;7.28;4.78;;;5.50;78.90;;;;;;4101665;29;20548;-79
2023/12/06 11:01:33;;;;;;;7.55;4.88;;;5.50;78.60;;;;;;4101190;29;20055;-79
2023/12/06 11:03:35;;;;;;;6.82;4.40;;;5.50;78.50;;;;;;4101416;29;20098;-79
2023/12/06 11:05:43;;;;;;;7.45;4.80;;;5.50;78.60;;;;;;4101909;29;20566;-79
2023/12/06 11:08:14;;;;;;;7.13;4.50;;;5.50;78.50;;;;;;4097707;28;20055;-79
2023/12/06 11:10:29;;;;;;;7.70;5.10;;;5.50;77.60;;;;;;4092768;29;20386;-78
2023/12/06 11:12:58;;;;;;;6.45;4.50;;;5.50;78.30;;;;;;4089283;29;20047;-78
2023/12/06 11:15:20;;;;;;;6.88;4.57;;;5.50;77.80;;;;;;4084981;29;20126;-78
2023/12/06 11:17:39;;;;;;;7.40;4.65;;;5.40;78.10;;;;;;4084956;29;20048;-79
2023/12/06 11:19:41;;;;;;;7.15;4.63;;;5.40;77.90;;;;;;4085018;29;20478;-78
2023/12/06 11:21:43;;;;;;;6.43;4.38;;;5.40;77.90;;;;;;4084802;29;20099;-78
2023/12/06 11:23:47;;;;;;;6.82;4.45;;;5.40;78.10;;;;;;4085046;29;20123;-78
2023/12/06 11:25:50;;;;;;;7.90;4.95;;;5.30;77.60;;;;;;4084972;29;20134;-79
2023/12/06 11:27:53;;;;;;;8.25;4.60;;;5.30;77.70;;;;;;4084928;29;20048;-79
2023/12/06 11:29:55;;;;;;;6.82;4.72;;;5.30;77.70;;;;;;4084619;29;20131;-79
2023/12/06 11:31:58;;;;;;;6.75;4.40;;;5.30;77.40;;;;;;4084878;29;20489;-79
2023/12/06 11:34:05;;;;;;;7.72;4.97;;;5.30;77.80;;;;;;4084793;29;20553;-78
2023/12/06 11:36:16;;;;;;;7.88;4.88;;;5.30;78.30;;;;;;4085824;29;20047;-79
2023/12/06 11:38:18;;;;;;;7.60;5.10;;;5.30;77.30;;;;;;4093816;29;20048;-78
2023/12/06 11:40:23;;;;;;;7.57;4.93;;;5.30;77.70;;;;;;4084714;29;20051;-79
2023/12/06 11:42:28;;;;;;;7.82;4.88;;;5.30;78.10;;;;;;4084707;29;20409;-78
2023/12/06 11:44:30;;;;;;;7.30;5.15;;;5.30;78.20;;;;;;4084665;29;20545;-79
2023/12/06 11:46:32;;;;;;;8.55;5.07;;;5.30;78.00;;;;;;4090705;29;20047;-78
2023/12/06 11:48:37;;;;;;;7.82;4.80;;;5.30;78.10;;;;;;4089666;29;20153;-78
2023/12/06 11:50:44;;;;;;;7.60;4.93;;;5.30;78.00;;;;;;4084739;29;20162;-79
2023/12/06 11:52:49;;;;;;;7.68;5.05;;;5.30;78.20;;;;;;4096705;29;20047;-79
2023/12/06 11:54:51;;;;;;;7.53;4.88;;;5.30;78.20;;;;;;4100323;28;20548;-79
2023/12/06 11:56:53;;;;;;;8.32;5.00;;;5.30;78.50;;;;;;4094940;29;20130;-79
2023/12/06 11:58:57;;;;;;;7.63;5.28;;;5.30;78.30;;;;;;4084503;29;20442;-79
2023/12/06 12:01:02;;;;;;;7.35;4.93;;;5.30;78.40;;;;;;4084216;29;20063;-80
2023/12/06 12:03:05;;;;;;;8.57;5.80;;;5.30;78.20;;;;;;4084583;29;20059;-79
2023/12/06 12:05:08;;;;;;;8.07;4.60;;;5.30;78.20;;;;;;4084424;29;20466;-79
2023/12/06 12:07:10;;;;;;;7.18;4.50;;;5.20;77.40;;;;;;4084532;29;20047;-80
2023/12/06 12:09:13;;;;;;;8.68;5.60;;;5.20;77.10;;;;;;4084254;29;20409;-79
2023/12/06 12:11:15;;;;;;;8.05;5.32;;;5.20;77.80;;;;;;4084318;29;20048;-79
2023/12/06 12:13:17;;;;;;;8.27;5.00;;;5.20;78.20;;;;;;4084328;29;20043;-79
2023/12/06 12:15:22;;;;;;;8.43;5.30;;;5.20;77.90;;;;;;4084197;29;20055;-80
2023/12/06 12:17:24;;;;;;;8.50;5.30;;;5.20;78.10;;;;;;4084481;29;20080;-79
2023/12/06 12:19:27;;;;;;;8.35;5.50;;;5.20;78.20;;;;;;4085115;29;20048;-79
2023/12/06 12:21:29;;;;;;;9.00;5.20;;;5.20;78.30;;;;;;4084289;29;20070;-79
2023/12/06 12:23:31;;;;;;;7.47;5.25;;;5.10;78.30;;;;;;4084119;29;20047;-79
2023/12/06 12:25:32;;;;;;;8.00;5.20;;;5.20;78.70;;;;;;4084025;29;20059;-79
2023/12/06 12:27:34;;;;;;;8.20;5.57;;;5.20;78.90;;;;;;4084091;29;20056;-79
2023/12/06 12:29:34;;;;;;;8.00;5.30;;;5.10;78.90;;;;;;4084080;29;20300;-79
2023/12/06 12:31:38;;;;;;;8.60;5.40;;;5.10;79.00;;;;;;4085170;29;20095;-79
2023/12/06 12:33:40;;;;;;;9.40;6.03;;;5.10;78.80;;;;;;4084216;29;20386;-80
2023/12/06 12:35:42;;;;;;;7.53;5.20;;;5.10;78.40;;;;;;4087750;29;20501;-80
2023/12/06 12:37:44;;;;;;;7.00;5.07;;;5.20;78.90;;;;;;4099775;29;20059;-80
2023/12/06 12:39:46;;;;;;;9.15;6.10;;;5.20;78.50;;;;;;4100017;29;20090;-80
2023/12/06 12:41:48;;;;;;;8.25;5.22;;;5.20;79.20;;;;;;4099811;29;20043;-80
2023/12/06 12:43:50;;;;;;;7.85;5.07;;;5.10;78.60;;;;;;4099989;28;20099;-80
2023/12/06 12:45:52;;;;;;;8.63;5.53;;;5.10;79.10;;;;;;4099818;29;20044;-80
2023/12/06 12:47:55;;;;;;;8.55;5.78;;;5.10;78.50;;;;;;4099937;29;20110;-80
2023/12/06 12:49:58;;;;;;;10.93;6.88;;;5.10;78.80;;;;;;4099769;29;20055;-80
2023/12/06 12:52:01;;;;;;;8.82;5.35;;;5.10;79.00;;;;;;4099798;29;20477;-80
2023/12/06 12:54:03;;;;;;;8.27;5.43;;;5.10;78.90;;;;;;4099535;29;20106;-80
2023/12/06 12:56:08;;;;;;;8.52;5.38;;;5.10;78.30;;;;;;4102304;28;20464;-80
2023/12/06 12:58:10;;;;;;;8.85;5.55;;;5.00;78.40;;;;;;4103046;29;20051;-80
2023/12/06 13:00:19;;;;;;;9.18;5.45;;;5.10;78.50;;;;;;4102878;29;20077;-80
2023/12/06 13:02:21;;;;;;;8.50;4.80;;;5.10;78.70;;;;;;4103108;29;20161;-80
2023/12/06 13:04:24;;;;;;;7.43;5.15;;;5.10;79.00;;;;;;4101492;29;20457;-80
2023/12/06 13:06:26;;;;;;;8.60;5.22;;;5.10;78.40;;;;;;4102919;29;20457;-80
2023/12/06 13:08:29;;;;;;;7.45;4.85;;;5.00;78.50;;;;;;4102789;29;20051;-80
2023/12/06 13:10:30;;;;;;;8.85;5.15;;;5.00;79.00;;;;;;4094760;29;20052;-79
2023/12/06 13:12:32;;;;;;;8.98;5.68;;;5.00;78.70;;;;;;4102792;29;20059;-79
2023/12/06 13:14:34;;;;;;;10.27;5.80;;;5.00;79.00;;;;;;4101202;29;20051;-80
2023/12/06 13:16:35;;;;;;;7.40;5.18;;;5.00;79.20;;;;;;4100781;28;20114;-80
2023/12/06 13:18:37;;;;;;;7.82;5.05;;;5.00;79.50;;;;;;4100737;29;20047;-80
2023/12/06 13:20:41;;;;;;;8.05;5.22;;;5.10;79.20;;;;;;4100362;29;20062;-79
2023/12/06 13:22:42;;;;;;;7.30;4.95;;;5.10;79.50;;;;;;4100612;29;20211;-80
2023/12/06 13:24:44;;;;;;;7.15;4.60;;;5.00;79.30;;;;;;4100559;29;20051;-80
2023/12/06 13:26:46;;;;;;;9.07;5.45;;;5.00;79.30;;;;;;4100059;29;20051;-80
2023/12/06 13:28:47;;;;;;;8.73;5.07;;;5.00;79.00;;;;;;4100065;28;20558;-80
2023/12/06 13:30:49;;;;;;;8.00;5.13;;;5.00;79.30;;;;;;4100439;29;20059;-80
2023/12/06 13:32:50;;;;;;;8.70;5.28;;;5.10;79.50;;;;;;4100211;29;20481;-80
2023/12/06 13:34:52;;;;;;;8.15;5.30;;;5.10;79.60;;;;;;4100375;29;20055;-81
2023/12/06 13:36:55;;;;;;;8.57;5.60;;;5.10;79.40;;;;;;4098302;29;20068;-81
2023/12/06 13:38:57;;;;;;;7.95;5.10;;;5.00;79.40;;;;;;4100080;29;20055;-80
2023/12/06 13:40:58;;;;;;;7.88;5.03;;;5.00;79.30;;;;;;4100190;29;20118;-80
2023/12/06 13:43:00;;;;;;;9.43;5.18;;;5.00;79.70;;;;;;4100272;28;20188;-80
2023/12/06 13:45:02;;;;;;;8.85;5.38;;;5.10;79.30;;;;;;4100044;29;20048;-80
2023/12/06 13:47:05;;;;;;;7.10;4.70;;;5.00;78.90;;;;;;4099996;29;20105;-80
2023/12/06 13:49:06;;;;;;;10.07;5.47;;;5.10;79.00;;;;;;4091590;29;20047;-80
2023/12/06 13:51:08;;;;;;;9.25;5.32;;;5.00;79.00;;;;;;4099888;29;20051;-80
2023/12/06 13:53:12;;;;;;;8.93;5.25;;;5.00;78.90;;;;;;4099966;28;20099;-80
2023/12/06 13:55:13;;;;;;;7.68;5.00;;;5.00;79.30;;;;;;4100090;29;20142;-80
2023/12/06 13:57:14;;;;;;;8.45;4.97;;;5.00;79.20;;;;;;4087193;29;20429;-80
2023/12/06 13:59:18;;;;;;;9.43;5.18;;;5.00;79.40;;;;;;4084053;29;20111;-80
2023/12/06 14:01:20;;;;;;;8.60;4.93;;;5.00;79.50;;;;;;4084074;29;20059;-81
2023/12/06 14:03:22;;;;;;;7.07;4.70;;;5.10;79.50;;;;;;4083997;29;20458;-81
2023/12/06 14:05:23;;;;;;;7.80;4.65;;;5.10;79.10;;;;;;4084706;29;20051;-79
2023/12/06 14:07:25;;;;;;;7.60;4.80;;;5.00;78.80;;;;;;4098445;28;20110;-80
2023/12/06 14:09:30;;;;;;;8.73;5.00;;;5.00;78.90;;;;;;4099964;29;20106;-79
2023/12/06 14:11:32;;;;;;;8.90;4.80;;;5.00;79.00;;;;;;4090202;29;20055;-80
2023/12/06 14:13:34;;;;;;;8.30;5.05;;;5.00;79.00;;;;;;4084062;29;20055;-80
2023/12/06 14:15:35;;;;;;;7.75;4.72;;;5.00;78.80;;;;;;4084371;29;20103;-80
2023/12/06 14:17:38;;;;;;;7.22;4.40;;;5.00;78.60;;;;;;4084452;29;20059;-79
2023/12/06 14:19:40;;;;;;;7.32;4.53;;;5.00;78.30;;;;;;4084463;29;20723;-80
2023/12/06 14:21:42;;;;;;;6.82;4.30;;;5.00;78.50;;;;;;4084386;29;20048;-80
2023/12/06 14:23:43;;;;;;;7.90;4.80;;;5.00;78.20;;;;;;4084262;29;20107;-79
2023/12/06 14:25:47;;;;;;;7.55;4.85;;;5.00;78.10;;;;;;4084222;29;20051;-79
2023/12/06 14:27:48;;;;;;;6.00;4.07;;;5.00;78.20;;;;;;4083860;29;20051;-78
2023/12/06 14:29:51;;;;;;;7.32;4.40;;;5.00;78.70;;;;;;4084108;29;20051;-79
2023/12/06 14:31:53;;;;;;;6.75;4.32;;;5.00;77.70;;;;;;4084026;29;20060;-79
2023/12/06 14:33:56;;;;;;;7.10;4.72;;;5.00;77.50;;;;;;4089866;29;20531;-78
2023/12/06 14:35:58;;;;;;;10.63;7.07;;;5.00;77.30;;;;;;4086872;29;20058;-78
2023/12/06 14:38:00;;;;;;;8.82;5.32;;;5.00;77.60;;;;;;4099454;29;20106;-79
2023/12/06 14:40:03;;;;;;;7.20;4.72;;;5.00;77.20;;;;;;4094323;29;20164;-78
2023/12/06 14:42:08;;;;;;;8.05;4.57;;;5.10;77.50;;;;;;4084022;29;20413;-79
2023/12/06 14:44:09;;;;;;;7.80;4.90;;;5.00;77.70;;;;;;4083890;29;20051;-79
2023/12/06 14:46:11;;;;;;;7.82;4.80;;;5.10;77.20;;;;;;4083861;29;20448;-79
2023/12/06 14:48:13;;;;;;;7.55;5.03;;;5.10;77.20;;;;;;4084130;29;20527;-79
2023/12/06 14:50:15;;;;;;;7.20;4.75;;;5.10;77.00;;;;;;4083572;29;20154;-78
2023/12/06 14:52:16;;;;;;;8.60;5.60;;;5.10;77.00;;;;;;4089378;29;20055;-79
2023/12/06 14:54:18;;;;;;;8.00;4.78;;;5.20;77.00;;;;;;4099416;29;20459;-79
2023/12/06 14:56:20;;;;;;;8.13;5.00;;;5.20;76.80;;;;;;4099498;29;20056;-79
2023/12/06 14:58:23;;;;;;;7.32;4.80;;;5.20;76.90;;;;;;4099350;29;20051;-78
2023/12/06 15:00:25;;;;;;;7.72;4.80;;;5.20;76.50;;;;;;4099289;28;20051;-79
2023/12/06 15:02:27;;;;;;;9.52;5.13;;;5.20;76.70;;;;;;4098987;29;20055;-79
2023/12/06 15:04:31;;;;;;;8.52;5.65;;;5.20;77.00;;;;;;4099265;29;20110;-79
2023/12/06 15:06:33;;;;;;;8.20;5.07;;;5.20;76.80;;;;;;4099289;28;20055;-79
2023/12/06 15:08:37;;;;;;;8.85;5.32;;;5.20;76.30;;;;;;4099387;28;20106;-79
2023/12/06 15:10:39;;;;;;;9.80;5.75;;;5.20;76.20;;;;;;4099520;28;20055;-78
2023/12/06 15:12:41;;;;;;;9.48;5.40;;;5.20;76.50;;;;;;4099383;29;20457;-78
2023/12/06 15:14:45;;;;;;;8.52;5.22;;;5.10;76.40;;;;;;4098915;29;20130;-78
2023/12/06 15:16:47;;;;;;;8.73;5.30;;;5.20;76.50;;;;;;4099151;28;20507;-78
2023/12/06 15:18:48;;;;;;;8.00;4.68;;;5.20;76.40;;;;;;4098777;28;20114;-78
2023/12/06 15:20:49;;;;;;;6.85;4.15;;;5.20;76.10;;;;;;4099189;29;20054;-79
2023/12/06 15:22:52;;;;;;;8.48;4.85;;;5.20;76.20;;;;;;4099218;29;20062;-80
2023/12/06 15:24:54;;;;;;;7.20;4.43;;;5.10;76.50;;;;;;4092857;28;20094;-78
2023/12/06 15:26:56;;;;;;;6.55;4.30;;;5.10;76.70;;;;;;4093127;29;20484;-80
2023/12/06 15:28:58;;;;;;;7.25;4.65;;;5.10;77.00;;;;;;4094770;28;20051;-79
2023/12/06 15:31:00;;;;;;;8.05;5.18;;;5.10;77.00;;;;;;4097954;29;20055;-80
2023/12/06 15:33:02;;;;;;;6.75;4.60;;;5.10;77.20;;;;;;4097782;29;20078;-79
2023/12/06 15:35:04;;;;;;;8.18;4.85;;;5.10;77.20;;;;;;4083198;29;20111;-80
2023/12/06 15:37:06;;;;;;;8.05;4.75;;;5.10;77.20;;;;;;4081184;29;20111;-80
2023/12/06 15:39:08;;;;;;;7.93;5.13;;;5.10;77.20;;;;;;4082823;29;20529;-79
2023/12/06 15:41:10;;;;;;;8.77;4.88;;;5.10;77.30;;;;;;4082959;29;20052;-79
2023/12/06 15:43:11;;;;;;;9.35;5.07;;;5.10;77.40;;;;;;4082994;29;20054;-80
2023/12/06 15:45:13;;;;;;;7.75;4.88;;;5.10;77.50;;;;;;4091260;29;20055;-79
2023/12/06 15:47:16;;;;;;;6.68;4.72;;;5.10;77.60;;;;;;4098753;29;20390;-79
2023/12/06 15:49:21;;;;;;;8.45;5.28;;;5.10;77.50;;;;;;4098488;29;20048;-80
2023/12/06 15:51:23;;;;;;;8.77;5.28;;;5.10;77.50;;;;;;4098416;29;20054;-80
2023/12/06 15:53:25;;;;;;;9.13;5.40;;;5.10;77.30;;;;;;4097300;28;20436;-79
2023/12/06 15:55:27;;;;;;;8.23;5.45;;;5.10;77.30;;;;;;4097997;29;20055;-79
2023/12/06 15:57:28;;;;;;;8.70;5.82;;;5.10;77.40;;;;;;4098278;29;20047;-79
2023/12/06 15:59:30;;;;;;;10.90;6.90;;;5.20;77.50;;;;;;4091803;28;20793;-80
2023/12/06 16:01:32;;;;;;;8.30;5.50;;;5.20;77.50;;;;;;4089145;29;20055;-80
2023/12/06 16:03:35;;;;;;;10.57;6.20;;;5.20;77.30;;;;;;4086942;29;20122;-80
2023/12/06 16:05:37;;;;;;;9.75;5.82;;;5.20;77.30;;;;;;4098359;28;20114;-80
2023/12/06 16:07:40;;;;;;;12.80;7.13;;;5.20;77.30;;;;;;4097364;29;20118;-80
2023/12/06 16:09:40;;;;;;;11.10;7.03;;;5.20;77.50;;;;;;4094530;29;20505;-81
2023/12/06 16:11:43;;;;;;;10.23;6.47;;;5.20;77.50;;;;;;4098244;29;20054;-80
2023/12/06 16:13:45;;;;;;;11.02;6.30;;;5.20;77.50;;;;;;4097851;29;20083;-81
2023/12/06 16:15:47;;;;;;;10.98;6.75;;;5.20;77.60;;;;;;4097944;29;20063;-80
2023/12/06 16:17:49;;;;;;;9.38;5.80;;;5.20;77.70;;;;;;4098216;29;20548;-81
2023/12/06 16:19:52;;;;;;;9.70;6.40;;;5.30;77.70;;;;;;4088251;29;20441;-80
2023/12/06 16:21:54;;;;;;;11.48;7.07;;;5.30;77.70;;;;;;4081785;29;20066;-80
2023/12/06 16:23:57;;;;;;;10.38;6.78;;;5.30;77.70;;;;;;4082162;29;20056;-81
2023/12/06 16:25:58;;;;;;;11.82;7.65;;;5.30;77.90;;;;;;4095444;28;20047;-81
2023/12/06 16:28:06;;;;;;;12.02;7.45;;;5.30;78.00;;;;;;4086829;29;20056;-81
2023/12/06 16:30:09;;;;;;;12.82;7.30;;;5.30;78.00;;;;;;4097125;28;20059;-80
2023/12/06 16:32:10;;;;;;;10.60;7.07;;;5.30;78.10;;;;;;4095448;28;20050;-81
2023/12/06 16:34:13;;;;;;;12.40;7.50;;;5.30;78.20;;;;;;4090523;29;20469;-81
2023/12/06 16:36:19;;;;;;;11.50;7.57;;;5.30;78.30;;;;;;4096038;29;20066;-81
2023/12/06 16:38:21;;;;;;;12.10;7.75;;;5.20;78.40;;;;;;4096643;28;20055;-80
2023/12/06 16:40:23;;;;;;;11.18;7.53;;;5.20;78.40;;;;;;4092492;29;20142;-80
2023/12/06 16:42:25;;;;;;;10.85;7.20;;;5.20;78.50;;;;;;4097504;29;20051;-80
2023/12/06 16:44:27;;;;;;;13.93;7.80;;;5.20;78.60;;;;;;4097981;29;20059;-81
2023/12/06 16:46:29;;;;;;;11.73;7.43;;;5.20;78.10;;;;;;4097908;29;20059;-78